Time;durP1;ratioP1;P1;durP2;ratioP2;P2;SDS_P1;SDS_P2;PMS_P1;PMS_P2;Temp;Humidity;BMP_temperature;BMP_pressure;BME280_temperature;BME280_humidity;BME280_pressure;Samples;Min_cycle;Max_cycle;Signal;HPM_P1;HPM_P2
2021/06/04 00:02:17;;;;;;;10.83;3.38;;;;;;;13.03;58.26;101080.63;126117;1101;24384;-59
2021/06/04 00:04:47;;;;;;;11.00;3.33;;;;;;;12.99;57.57;101080.03;126014;1101;23180;-59
2021/06/04 00:07:17;;;;;;;10.48;3.58;;;;;;;12.98;58.22;101077.71;126122;1101;22755;-60
2021/06/04 00:09:49;;;;;;;11.00;3.07;;;;;;;12.97;58.13;101082.53;126227;1101;22853;-60
2021/06/04 00:12:18;;;;;;;13.55;4.00;;;;;;;12.92;58.30;101080.40;125976;1096;22762;-60
2021/06/04 00:14:49;;;;;;;10.65;3.70;;;;;;;12.82;58.67;101076.09;126226;1101;22758;-59
2021/06/04 00:17:23;;;;;;;11.18;3.33;;;;;;;12.74;58.70;101074.11;126035;1096;25884;-60
2021/06/04 00:19:53;;;;;;;11.40;4.05;;;;;;;12.62;58.89;101075.85;126243;1096;26200;-60
2021/06/04 00:22:28;;;;;;;12.10;3.80;;;;;;;12.51;59.44;101086.80;126077;1101;22757;-60
2021/06/04 00:24:58;;;;;;;10.10;3.33;;;;;;;12.39;59.17;101079.38;126026;1101;22896;-59
2021/06/04 00:27:29;;;;;;;11.98;3.53;;;;;;;12.30;59.63;101075.81;126127;1101;22734;-60
2021/06/04 00:29:59;;;;;;;13.75;3.90;;;;;;;12.23;59.69;101076.16;126177;1096;22855;-59
2021/06/04 00:32:32;;;;;;;12.65;3.50;;;;;;;12.17;59.75;101064.80;126225;1101;22750;-59
2021/06/04 00:35:03;;;;;;;11.65;3.75;;;;;;;12.17;59.63;101068.38;126029;1101;22755;-59
2021/06/04 00:37:33;;;;;;;10.50;3.10;;;;;;;12.18;59.89;101064.35;126186;1101;22803;-59
2021/06/04 00:40:07;;;;;;;14.48;4.03;;;;;;;12.21;59.83;101070.25;126068;1096;27103;-58
2021/06/04 00:42:37;;;;;;;13.80;3.60;;;;;;;12.17;59.80;101073.98;126178;1096;22754;-59
2021/06/04 00:45:16;;;;;;;12.33;3.40;;;;;;;12.16;59.86;101069.64;126004;1096;26315;-60
2021/06/04 00:47:46;;;;;;;10.37;3.40;;;;;;;12.12;59.82;101066.20;126105;1101;22758;-59
2021/06/04 00:50:22;;;;;;;12.20;3.65;;;;;;;12.09;60.16;101063.58;126174;1101;22755;-59
2021/06/04 00:52:53;;;;;;;11.70;3.95;;;;;;;12.03;60.16;101066.24;126156;1096;23472;-60
2021/06/04 00:55:24;;;;;;;11.70;4.10;;;;;;;12.00;60.32;101069.97;126147;1096;22832;-60
2021/06/04 00:57:55;;;;;;;11.07;3.70;;;;;;;11.99;60.20;101071.23;126204;1101;24369;-60
2021/06/04 01:00:32;;;;;;;10.27;4.33;;;;;;;11.98;60.55;101068.91;126191;1101;22737;-59
2021/06/04 01:03:03;;;;;;;14.70;3.80;;;;;;;11.96;60.53;101060.95;126064;1101;22740;-59
2021/06/04 01:05:34;;;;;;;12.67;4.30;;;;;;;11.95;60.36;101065.02;126011;1101;22762;-59
2021/06/04 01:08:20;;;;;;;13.00;4.33;;;;;;;11.95;60.48;101070.61;126155;1101;22768;-59
2021/06/04 01:11:13;;;;;;;14.50;5.03;;;;;;;11.93;60.52;101061.13;127397;1101;22793;-60
2021/06/04 01:13:58;;;;;;;15.87;6.20;;;;;;;11.90;60.54;101059.25;127159;1101;23452;-59
2021/06/04 01:16:34;;;;;;;17.67;5.67;;;;;;;11.88;60.70;101064.54;126185;1096;26878;-58
2021/06/04 01:19:29;;;;;;;15.00;5.70;;;;;;;11.88;60.75;101067.34;126213;1096;23485;-57
2021/06/04 01:22:03;;;;;;;15.13;5.73;;;;;;;11.82;60.88;101067.20;126267;1101;22780;-58
2021/06/04 01:24:49;;;;;;;17.53;7.07;;;;;;;11.80;60.92;101074.50;126180;1101;22733;-58
2021/06/04 01:27:24;;;;;;;15.87;7.10;;;;;;;11.73;60.82;101069.23;126195;1096;27100;-59
2021/06/04 01:30:01;;;;;;;18.30;6.83;;;;;;;11.63;61.17;101076.80;126271;1101;22744;-58
2021/06/04 01:32:35;;;;;;;16.43;7.03;;;;;;;11.55;61.14;101072.77;126130;1101;22843;-58
2021/06/04 01:35:11;;;;;;;17.73;7.83;;;;;;;11.54;61.48;101071.23;126200;1096;26289;-57
2021/06/04 01:37:42;;;;;;;19.20;7.57;;;;;;;11.53;61.50;101075.25;126296;1096;26200;-58
2021/06/04 01:40:23;;;;;;;19.87;7.77;;;;;;;11.49;61.61;101080.23;126280;1101;25635;-58
2021/06/04 01:42:54;;;;;;;17.25;7.03;;;;;;;11.39;61.45;101081.46;126113;1101;22722;-58
2021/06/04 01:45:31;;;;;;;17.50;7.37;;;;;;;11.32;61.89;101074.16;126130;1101;22733;-59
2021/06/04 01:48:09;;;;;;;20.40;7.30;;;;;;;11.29;61.71;101077.89;126102;1101;22828;-57
2021/06/04 01:50:47;;;;;;;17.57;7.17;;;;;;;11.25;61.75;101073.69;126120;1101;22734;-59
2021/06/04 01:53:21;;;;;;;16.10;7.17;;;;;;;11.23;61.84;101078.97;126092;1096;22748;-57
2021/06/04 01:55:54;;;;;;;19.20;6.90;;;;;;;11.18;62.02;101090.74;126086;1101;25350;-57
2021/06/04 01:58:31;;;;;;;18.07;7.07;;;;;;;11.11;61.92;101079.88;126283;1101;22818;-58
2021/06/04 02:01:08;;;;;;;15.05;6.35;;;;;;;11.05;62.41;101076.14;126019;1101;22762;-58
2021/06/04 02:03:39;;;;;;;12.83;5.47;;;;;;;10.99;62.44;101081.54;126426;1101;22800;-57
2021/06/04 02:06:10;;;;;;;13.70;5.63;;;;;;;10.89;62.63;101085.55;126171;1101;22765;-57
2021/06/04 02:08:42;;;;;;;13.60;5.13;;;;;;;10.82;62.69;101083.03;126144;1101;22832;-58
2021/06/04 02:11:14;;;;;;;12.57;4.97;;;;;;;10.78;62.83;101081.64;126188;1101;22741;-57
2021/06/04 02:13:50;;;;;;;16.77;5.50;;;;;;;10.76;62.85;101075.74;126312;1096;26200;-57
2021/06/04 02:16:38;;;;;;;14.50;5.27;;;;;;;10.73;62.51;101076.65;126229;1101;22707;-59
2021/06/04 02:19:17;;;;;;;13.03;5.47;;;;;;;10.71;62.69;101073.53;126128;1101;22737;-59
2021/06/04 02:22:00;;;;;;;13.00;5.53;;;;;;;10.71;62.71;101076.33;126090;1096;27163;-56
2021/06/04 02:24:37;;;;;;;18.03;5.73;;;;;;;10.71;62.78;101070.75;126227;1096;28225;-56
2021/06/04 02:27:12;;;;;;;17.50;5.40;;;;;;;10.74;62.92;101067.05;126081;1096;22761;-57
2021/06/04 02:29:47;;;;;;;17.23;6.27;;;;;;;10.73;62.89;101066.27;126048;1096;24599;-57
2021/06/04 02:32:23;;;;;;;15.07;5.53;;;;;;;10.71;63.13;101063.16;126107;1096;26238;-57
2021/06/04 02:34:59;;;;;;;15.10;5.60;;;;;;;10.66;63.40;101065.75;126160;1096;27278;-57
2021/06/04 02:37:35;;;;;;;13.93;5.60;;;;;;;10.64;63.38;101059.84;126140;1101;22765;-58
2021/06/04 02:40:12;;;;;;;13.57;5.20;;;;;;;10.61;63.38;101058.77;126384;1101;22734;-56
2021/06/04 02:42:47;;;;;;;13.33;5.17;;;;;;;10.52;63.73;101059.52;126158;1096;26467;-57
2021/06/04 02:45:25;;;;;;;13.90;5.23;;;;;;;10.43;63.98;101065.05;126092;1101;22765;-57
2021/06/04 02:48:02;;;;;;;16.87;5.43;;;;;;;10.35;64.34;101063.77;126149;1101;22744;-55
2021/06/04 02:50:38;;;;;;;12.80;5.10;;;;;;;10.30;64.29;101067.17;126272;1096;22737;-59
2021/06/04 02:53:21;;;;;;;17.90;5.83;;;;;;;10.27;64.22;101070.86;126511;1096;25772;-58
2021/06/04 02:56:20;;;;;;;16.93;4.93;;;;;;;10.24;64.17;101057.05;126158;1096;26235;-58
2021/06/04 02:58:54;;;;;;;15.48;4.95;;;;;;;10.20;64.53;101068.33;126128;1101;22740;-58
2021/06/04 03:01:29;;;;;;;16.93;5.50;;;;;;;10.15;64.36;101065.36;126152;1101;22838;-58
2021/06/04 03:04:02;;;;;;;14.90;4.70;;;;;;;10.14;64.53;101055.45;126253;1101;22754;-57
2021/06/04 03:06:37;;;;;;;15.27;4.77;;;;;;;10.11;64.61;101059.92;126134;1096;28359;-59
2021/06/04 03:09:13;;;;;;;14.47;4.77;;;;;;;10.11;64.97;101061.93;126182;1096;26259;-57
2021/06/04 03:11:45;;;;;;;18.33;5.60;;;;;;;10.10;64.64;101061.14;126102;1096;27484;-57
2021/06/04 03:14:18;;;;;;;14.27;5.10;;;;;;;10.13;64.79;101062.25;126154;1101;22762;-57
2021/06/04 03:16:50;;;;;;;15.03;5.60;;;;;;;10.15;65.02;101060.56;126031;1101;24563;-57
2021/06/04 03:19:21;;;;;;;17.83;5.17;;;;;;;10.17;65.15;101057.31;125930;1101;22734;-59
2021/06/04 03:21:56;;;;;;;16.57;5.53;;;;;;;10.16;65.12;101055.77;125917;1096;25714;-57
2021/06/04 03:24:33;;;;;;;17.90;5.67;;;;;;;10.15;65.31;101060.56;126115;1101;22761;-58
2021/06/04 03:27:05;;;;;;;16.73;5.93;;;;;;;10.14;65.53;101061.03;126170;1096;22723;-58
2021/06/04 03:29:35;;;;;;;14.70;5.60;;;;;;;10.13;65.72;101065.05;126111;1096;22795;-58
2021/06/04 03:32:11;;;;;;;17.05;4.73;;;;;;;10.15;65.74;101068.94;126241;1101;22709;-59
2021/06/04 03:34:43;;;;;;;15.70;5.17;;;;;;;10.16;66.08;101064.90;126281;1101;22762;-58
2021/06/04 03:37:16;;;;;;;17.30;6.17;;;;;;;10.17;65.97;101065.69;126218;1101;23473;-57
2021/06/04 03:39:47;;;;;;;17.10;5.90;;;;;;;10.17;66.19;101074.84;126185;1101;22741;-58
2021/06/04 03:42:21;;;;;;;15.03;5.37;;;;;;;10.18;66.33;101076.38;126254;1101;22734;-60
2021/06/04 03:44:51;;;;;;;20.50;5.30;;;;;;;10.19;66.53;101069.58;126116;1096;27125;-59
2021/06/04 03:47:23;;;;;;;14.58;4.85;;;;;;;10.22;66.61;101076.27;126343;1096;27103;-59
2021/06/04 03:49:56;;;;;;;15.17;5.30;;;;;;;10.25;66.78;101069.75;126271;1096;25745;-59
2021/06/04 03:52:27;;;;;;;14.83;5.65;;;;;;;10.28;66.65;101074.44;126138;1101;22741;-59
2021/06/04 03:54:59;;;;;;;12.30;4.70;;;;;;;10.33;66.71;101082.98;126231;1101;22703;-58
2021/06/04 03:57:32;;;;;;;13.97;5.53;;;;;;;10.39;66.74;101072.00;126237;1095;27163;-58
2021/06/04 04:00:04;;;;;;;12.40;4.75;;;;;;;10.46;66.72;101075.30;126076;1101;22764;-57
2021/06/04 04:02:35;;;;;;;13.93;5.47;;;;;;;10.53;66.71;101077.80;126358;1101;22791;-56
2021/06/04 04:05:08;;;;;;;17.80;6.17;;;;;;;10.62;66.84;101070.70;126316;1096;24536;-59
2021/06/04 04:07:38;;;;;;;13.17;5.37;;;;;;;10.70;66.72;101066.41;126384;1101;22719;-56
2021/06/04 04:10:11;;;;;;;18.73;7.10;;;;;;;10.80;67.13;101070.79;126252;1101;22755;-56
2021/06/04 04:12:42;;;;;;;17.53;6.43;;;;;;;10.92;67.56;101064.30;126382;1101;22744;-59
2021/06/04 04:15:17;;;;;;;15.67;5.43;;;;;;;11.04;67.23;101072.56;126122;1101;22878;-59
2021/06/04 04:17:51;;;;;;;16.97;6.03;;;;;;;11.15;67.16;101067.28;126416;1101;22851;-59
2021/06/04 04:20:25;;;;;;;18.53;7.40;;;;;;;11.21;67.65;101073.06;126184;1096;22762;-60
2021/06/04 04:22:56;;;;;;;13.30;5.97;;;;;;;11.30;67.52;101073.05;126111;1101;22711;-58
2021/06/04 04:25:28;;;;;;;17.40;6.30;;;;;;;11.40;67.40;101075.40;126251;1101;22761;-58
2021/06/04 04:27:59;;;;;;;14.33;5.77;;;;;;;11.53;67.70;101072.45;126155;1101;22719;-60
2021/06/04 04:30:30;;;;;;;19.10;7.00;;;;;;;11.66;67.68;101070.33;126246;1101;25587;-59
2021/06/04 04:32:59;;;;;;;18.83;6.90;;;;;;;11.81;67.71;101074.05;126139;1096;22761;-60
2021/06/04 04:35:33;;;;;;;15.98;6.13;;;;;;;11.95;67.82;101072.63;126171;1101;24166;-60
2021/06/04 04:38:05;;;;;;;16.30;6.07;;;;;;;12.07;68.00;101072.45;126202;1101;22737;-59
2021/06/04 04:40:39;;;;;;;17.23;6.97;;;;;;;12.25;68.20;101066.02;126287;1101;22736;-58
2021/06/04 04:43:09;;;;;;;15.70;5.70;;;;;;;12.42;68.22;101072.82;126219;1096;23459;-59
2021/06/04 04:45:40;;;;;;;19.20;7.07;;;;;;;12.57;68.01;101070.91;126041;1101;22945;-58
2021/06/04 04:48:11;;;;;;;16.87;7.53;;;;;;;12.74;67.88;101074.11;126202;1101;22737;-58
2021/06/04 04:50:41;;;;;;;18.90;7.25;;;;;;;12.91;67.92;101076.03;126151;1096;22738;-58
2021/06/04 04:53:11;;;;;;;17.13;6.65;;;;;;;13.10;67.57;101073.17;125950;1096;26212;-58
2021/06/04 04:55:42;;;;;;;19.48;6.53;;;;;;;13.24;67.38;101076.02;126062;1096;23470;-59
2021/06/04 04:58:15;;;;;;;17.57;7.00;;;;;;;13.40;67.53;101084.03;126077;1096;26234;-58
2021/06/04 05:00:45;;;;;;;17.83;6.67;;;;;;;13.57;67.39;101073.90;126005;1101;22956;-58
2021/06/04 05:03:15;;;;;;;;;;;;;;;13.77;67.46;101076.88;126389;1096;27098;-63
2021/06/04 05:05:46;;;;;;;15.95;6.38;;;;;;;13.92;67.46;101079.70;126469;1101;21467;-59
2021/06/04 05:08:16;;;;;;;14.20;5.57;;;;;;;14.06;67.41;101081.75;126163;1102;24213;-60
2021/06/04 05:10:47;;;;;;;16.57;7.67;;;;;;;14.22;67.33;101083.29;126117;1096;27129;-64
2021/06/04 05:13:19;;;;;;;15.90;6.75;;;;;;;14.33;66.53;101089.92;125937;1101;22765;-58
2021/06/04 05:15:48;;;;;;;15.65;6.50;;;;;;;14.44;66.79;101086.53;126146;1101;22755;-58
2021/06/04 05:18:19;;;;;;;14.53;6.25;;;;;;;14.58;66.70;101092.14;125993;1101;22726;-58
2021/06/04 05:20:49;;;;;;;17.35;6.05;;;;;;;14.74;65.85;101090.84;126157;1101;22741;-58
2021/06/04 05:23:20;;;;;;;14.98;4.75;;;;;;;14.90;65.95;101095.16;126121;1095;27279;-58
2021/06/04 05:25:52;;;;;;;15.20;5.50;;;;;;;15.08;65.77;101090.06;126331;1101;22899;-59
2021/06/04 05:28:26;;;;;;;13.23;5.10;;;;;;;15.26;65.94;101086.23;126147;1096;22755;-59
2021/06/04 05:31:00;;;;;;;14.45;5.80;;;;;;;15.39;65.00;101092.30;126574;1096;26235;-58
2021/06/04 05:33:33;;;;;;;14.90;5.73;;;;;;;15.54;65.30;101087.38;126222;1096;26095;-59
2021/06/04 05:36:07;;;;;;;13.60;5.20;;;;;;;15.66;65.14;101074.23;126059;1096;27457;-58
2021/06/04 05:38:38;;;;;;;16.40;5.10;;;;;;;15.83;64.87;101083.64;126116;1096;22831;-58
2021/06/04 05:41:09;;;;;;;18.30;5.93;;;;;;;16.01;64.94;101077.69;126022;1101;22755;-59
2021/06/04 05:43:40;;;;;;;12.40;4.60;;;;;;;16.15;64.36;101080.39;125693;1101;22726;-57
2021/06/04 05:46:13;;;;;;;16.75;4.20;;;;;;;16.36;64.24;101081.09;125931;1101;22802;-59
2021/06/04 05:48:43;;;;;;;13.15;4.55;;;;;;;16.52;64.39;101076.89;125894;1101;25431;-59
2021/06/04 05:51:18;;;;;;;11.85;4.13;;;;;;;16.67;63.71;101083.95;125767;1096;26515;-57
2021/06/04 05:53:49;;;;;;;8.60;2.57;;;;;;;16.80;63.75;101087.09;125831;1101;22740;-58
2021/06/04 05:56:21;;;;;;;15.33;3.97;;;;;;;16.92;62.82;101085.90;126028;1101;22835;-59
2021/06/04 05:58:52;;;;;;;9.55;2.95;;;;;;;17.02;62.38;101091.35;125964;1101;22754;-59
2021/06/04 06:01:25;;;;;;;8.97;2.83;;;;;;;17.10;62.77;101092.42;125882;1101;24458;-59
2021/06/04 06:03:57;;;;;;;10.13;3.03;;;;;;;17.20;62.48;101088.90;125830;1101;24223;-61
2021/06/04 06:06:27;;;;;;;14.10;3.80;;;;;;;17.36;62.28;101093.10;125869;1101;22764;-60
2021/06/04 06:08:56;;;;;;;;;;;;;;;17.48;61.58;101091.87;125818;1101;22755;-59
2021/06/04 06:11:29;;;;;;;10.40;2.80;;;;;;;17.57;61.61;101088.84;125783;1096;21467;-60
2021/06/04 06:14:01;;;;;;;10.25;2.60;;;;;;;17.67;61.17;101093.01;125988;1101;22903;-62
2021/06/04 06:16:31;;;;;;;9.65;2.45;;;;;;;17.79;60.44;101094.59;126123;1101;22835;-62
2021/06/04 06:19:03;;;;;;;9.47;2.53;;;;;;;17.88;60.39;101090.77;125824;1096;26488;-60
2021/06/04 06:21:34;;;;;;;10.90;2.80;;;;;;;18.00;60.38;101095.16;125801;1101;22719;-61
2021/06/04 06:24:06;;;;;;;11.37;3.20;;;;;;;18.12;60.30;101097.50;125968;1101;22744;-60
2021/06/04 06:26:36;;;;;;;10.75;3.25;;;;;;;18.25;59.70;101100.59;125925;1096;27132;-60
2021/06/04 06:29:05;;;;;;;;;;;;;;;18.36;59.44;101102.66;125925;1096;27303;-60
2021/06/04 06:31:39;;;;;;;12.75;3.08;;;;;;;18.46;59.54;101098.32;125931;1101;21586;-60
2021/06/04 06:34:10;;;;;;;8.20;2.85;;;;;;;18.58;59.24;101099.86;126775;1085;22758;-61
2021/06/04 06:36:45;;;;;;;9.07;2.47;;;;;;;18.69;58.94;101099.87;126139;1101;23275;-61
2021/06/04 06:39:17;;;;;;;8.45;2.70;;;;;;;18.80;58.77;101102.70;125828;1101;22822;-60
2021/06/04 06:41:48;;;;;;;10.25;3.05;;;;;;;18.90;58.50;101103.97;125865;1101;22754;-61
2021/06/04 06:44:19;;;;;;;10.50;2.80;;;;;;;19.00;58.10;101102.41;125917;1101;22738;-61
2021/06/04 06:46:51;;;;;;;8.30;2.60;;;;;;;19.07;57.07;101095.45;125953;1096;27632;-60
2021/06/04 06:49:22;;;;;;;8.50;2.60;;;;;;;19.16;57.29;101101.59;125760;1101;22892;-61
2021/06/04 06:51:53;;;;;;;11.45;2.50;;;;;;;19.26;57.02;101104.94;125661;1096;26964;-60
2021/06/04 06:54:25;;;;;;;10.35;2.50;;;;;;;19.34;56.84;101101.09;125739;1101;22823;-61
2021/06/04 06:56:58;;;;;;;11.55;2.20;;;;;;;19.45;56.50;101105.92;125514;1104;24544;-61
2021/06/04 06:59:32;;;;;;;7.80;2.60;;;;;;;19.59;56.17;101104.86;125846;1104;22837;-61
2021/06/04 07:02:06;;;;;;;7.10;2.27;;;;;;;19.70;55.65;101107.63;125803;1104;23332;-61
2021/06/04 07:04:37;;;;;;;8.10;2.05;;;;;;;19.86;55.74;101109.59;125719;1104;22816;-61
2021/06/04 07:07:07;;;;;;;10.30;1.77;;;;;;;20.00;54.50;101094.34;125622;1104;22851;-61
2021/06/04 07:09:37;;;;;;;7.03;1.83;;;;;;;20.14;54.05;101103.78;125502;1104;22725;-62
2021/06/04 07:12:10;;;;;;;9.95;2.40;;;;;;;20.31;54.08;101106.54;129770;1101;22538;-62
2021/06/04 07:14:41;;;;;;;7.73;2.20;;;;;;;20.45;53.84;101109.02;129769;1104;22531;-61
2021/06/04 07:17:11;;;;;;;9.67;1.90;;;;;;;20.61;53.78;101102.43;130019;1101;22619;-61
2021/06/04 07:19:42;;;;;;;10.48;1.70;;;;;;;20.75;51.99;101106.20;128863;1101;22758;-61
2021/06/04 07:22:14;;;;;;;7.00;1.60;;;;;;;20.89;51.38;101105.03;126471;1096;26088;-62
2021/06/04 07:24:44;;;;;;;5.95;1.85;;;;;;;21.00;50.82;101101.32;126072;1101;22822;-62
2021/06/04 07:27:14;;;;;;;8.05;1.90;;;;;;;21.05;50.94;101101.28;125911;1101;22806;-62
2021/06/04 07:29:44;;;;;;;6.98;1.60;;;;;;;21.09;50.61;101101.76;125784;1102;22746;-62
2021/06/04 07:32:14;;;;;;;5.45;1.58;;;;;;;21.13;50.44;101099.39;125573;1097;22839;-63
2021/06/04 07:34:43;;;;;;;;;;;;;;;21.20;49.73;101100.88;125628;1097;26047;-62
2021/06/04 07:37:14;;;;;;;7.53;1.80;;;;;;;21.24;49.92;101104.96;125864;1101;21576;-62
2021/06/04 07:39:44;;;;;;;6.30;1.78;;;;;;;21.31;49.32;101106.45;125764;1097;22761;-58
2021/06/04 07:42:15;;;;;;;5.63;1.67;;;;;;;21.38;48.93;101100.92;125769;1101;24442;-60
2021/06/04 07:44:45;;;;;;;6.85;1.70;;;;;;;21.48;48.95;101098.48;125910;1096;26872;-60
2021/06/04 07:47:15;;;;;;;6.35;1.15;;;;;;;21.57;48.07;101104.58;126080;1096;27128;-60
2021/06/04 07:49:45;;;;;;;8.73;1.50;;;;;;;21.61;47.04;101102.20;125952;1096;22813;-57
2021/06/04 07:52:16;;;;;;;6.85;1.70;;;;;;;21.65;47.47;101102.66;125868;1101;22801;-59
2021/06/04 07:54:46;;;;;;;8.93;1.77;;;;;;;21.70;47.06;101103.91;125895;1096;22751;-58
2021/06/04 07:57:16;;;;;;;5.05;1.33;;;;;;;21.74;46.65;101110.83;125878;1101;23251;-61
2021/06/04 07:59:45;;;;;;;;;;;;;;;21.77;46.80;101108.97;125692;1097;27236;-60
2021/06/04 08:02:15;;;;;;;8.53;1.60;;;;;;;21.82;46.46;101096.02;125797;1104;21468;-60
2021/06/04 08:04:46;;;;;;;8.40;1.60;;;;;;;21.91;46.77;101092.81;125695;1101;22818;-60
2021/06/04 08:07:23;;;;;;;3.90;1.20;;;;;;;22.00;45.58;101093.18;125601;1104;22768;-62
2021/06/04 08:09:55;;;;;;;6.93;1.40;;;;;;;22.10;44.81;101100.01;125697;1096;22740;-62
2021/06/04 08:12:30;;;;;;;8.18;1.45;;;;;;;22.17;44.91;101105.09;125631;1097;22826;-62
2021/06/04 08:15:04;;;;;;;6.28;1.40;;;;;;;22.24;44.96;101095.16;125690;1104;22778;-60
2021/06/04 08:17:36;;;;;;;5.57;1.30;;;;;;;22.33;44.87;101089.06;125981;1097;25941;-62
2021/06/04 08:20:21;;;;;;;8.30;1.20;;;;;;;22.45;44.52;101102.57;125931;1096;25915;-60
2021/06/04 08:22:57;;;;;;;6.05;1.20;;;;;;;22.54;43.75;101099.33;125721;1104;22770;-62
2021/06/04 08:25:32;;;;;;;4.10;1.17;;;;;;;22.62;43.17;101099.48;125740;1101;22754;-61
2021/06/04 08:28:03;;;;;;;13.93;1.95;;;;;;;22.70;42.76;101091.84;125736;1096;22832;-61
2021/06/04 08:30:33;;;;;;;4.60;1.60;;;;;;;22.80;42.53;101095.80;125744;1101;22744;-61
2021/06/04 08:33:07;;;;;;;6.05;1.30;;;;;;;22.93;42.33;101092.22;125675;1101;22823;-61
2021/06/04 08:35:38;;;;;;;7.15;1.35;;;;;;;23.04;41.43;101089.17;125985;1096;27153;-62
2021/06/04 08:38:08;;;;;;;4.98;1.20;;;;;;;23.10;41.87;101092.69;125956;1096;25812;-61
2021/06/04 08:40:38;;;;;;;;;;;;;;;23.17;41.35;101092.79;125684;1104;25398;-60
2021/06/04 08:43:24;;;;;;;7.27;1.20;;;;;;;23.22;41.02;101089.08;125734;1104;21592;-61
2021/06/04 08:46:05;;;;;;;6.55;1.30;;;;;;;23.27;40.37;101093.91;125999;1101;22751;-61
2021/06/04 08:48:47;;;;;;;9.73;1.40;;;;;;;23.35;40.77;101093.27;125961;1101;24442;-61
2021/06/04 08:51:28;;;;;;;4.95;1.18;;;;;;;23.45;39.73;101085.81;126000;1101;22781;-61
2021/06/04 08:54:37;;;;;;;4.88;1.30;;;;;;;23.55;39.48;101084.04;125851;1101;22848;-62
2021/06/04 08:57:21;;;;;;;7.40;1.13;;;;;;;23.64;38.38;101083.60;125667;1099;25519;-61
2021/06/04 08:59:53;;;;;;;4.68;1.10;;;;;;;23.70;38.73;101085.02;125506;1104;22747;-62
2021/06/04 09:02:41;;;;;;;6.05;1.10;;;;;;;23.80;38.87;101076.77;125654;1099;27444;-61
2021/06/04 09:05:16;;;;;;;4.88;0.95;;;;;;;23.89;37.70;101064.91;125638;1099;29153;-62
2021/06/04 09:07:50;;;;;;;3.35;1.18;;;;;;;23.93;37.13;101071.81;125563;1104;22940;-61
2021/06/04 09:10:31;;;;;;;5.05;1.20;;;;;;;24.00;37.54;101064.67;125706;1104;22754;-62
2021/06/04 09:13:09;;;;;;;6.03;1.20;;;;;;;24.05;36.61;101052.38;125505;1100;25836;-61
2021/06/04 09:15:41;;;;;;;4.18;1.20;;;;;;;24.09;36.84;101058.50;125510;1099;27295;-61
2021/06/04 09:18:16;;;;;;;5.88;1.23;;;;;;;24.18;36.75;101069.45;125564;1104;24417;-61
2021/06/04 09:20:58;;;;;;;7.30;1.90;;;;;;;24.25;36.49;101063.04;125535;1105;22835;-64
2021/06/04 09:23:36;;;;;;;6.73;1.45;;;;;;;24.33;36.25;101069.62;125601;1104;22759;-61
2021/06/04 09:26:09;;;;;;;6.15;1.15;;;;;;;24.40;35.83;101066.05;125612;1104;24554;-61
2021/06/04 09:28:47;;;;;;;6.65;1.30;;;;;;;24.46;36.21;101063.83;125775;1096;22831;-62
2021/06/04 09:31:23;;;;;;;5.93;1.10;;;;;;;24.50;35.96;101063.50;125542;1104;22790;-62
2021/06/04 09:33:57;;;;;;;5.73;1.00;;;;;;;24.55;36.17;101062.58;125594;1096;27306;-62
2021/06/04 09:36:45;;;;;;;6.03;1.30;;;;;;;24.60;35.81;101053.86;125745;1104;22765;-63
2021/06/04 09:39:30;;;;;;;10.08;1.68;;;;;;;24.67;36.13;101055.25;125746;1101;22733;-62
2021/06/04 09:42:18;;;;;;;8.67;1.50;;;;;;;24.74;35.95;101063.93;125646;1104;22767;-62
2021/06/04 09:44:59;;;;;;;6.33;1.40;;;;;;;24.79;35.51;101054.43;125684;1104;22740;-62
2021/06/04 09:47:44;;;;;;;3.95;1.20;;;;;;;24.86;36.01;101048.02;125794;1104;22757;-62
2021/06/04 09:50:22;;;;;;;7.20;1.40;;;;;;;24.94;35.43;101050.16;125632;1103;24446;-62
2021/06/04 09:53:06;;;;;;;8.20;1.60;;;;;;;24.98;35.55;101048.48;125551;1104;22807;-62
2021/06/04 09:55:41;;;;;;;5.50;1.10;;;;;;;24.99;35.35;101055.73;125733;1097;27221;-62
2021/06/04 09:58:25;;;;;;;6.55;1.40;;;;;;;24.99;35.30;101043.53;126101;1096;27584;-62
2021/06/04 10:01:10;;;;;;;7.80;1.40;;;;;;;24.98;34.63;101050.56;125976;1101;22761;-62
2021/06/04 10:03:54;;;;;;;4.85;1.13;;;;;;;24.94;34.72;101047.30;125700;1104;22799;-62
2021/06/04 10:06:33;;;;;;;5.38;1.05;;;;;;;24.89;34.25;101044.03;125895;1101;22831;-62
2021/06/04 10:09:25;;;;;;;5.95;1.20;;;;;;;24.89;34.63;101046.89;125909;1101;22741;-62
2021/06/04 10:12:00;;;;;;;6.25;1.40;;;;;;;24.89;34.56;101046.89;125601;1104;22781;-62
2021/06/04 10:14:49;;;;;;;4.78;1.40;;;;;;;24.94;34.45;101044.44;125695;1097;27087;-62
2021/06/04 10:17:46;;;;;;;6.45;1.35;;;;;;;24.95;34.62;101043.13;125725;1101;22920;-62
2021/06/04 10:20:33;;;;;;;6.58;1.25;;;;;;;24.98;34.37;101044.84;125742;1104;22781;-63
2021/06/04 10:23:10;;;;;;;3.55;1.33;;;;;;;24.99;34.26;101043.53;125598;1096;22826;-62
2021/06/04 10:25:50;;;;;;;8.83;3.35;;;;;;;24.97;34.53;101040.47;125730;1104;23702;-63
2021/06/04 10:28:37;;;;;;;10.73;2.95;;;;;;;24.94;34.44;101030.93;125924;1101;25522;-62
2021/06/04 10:31:40;;;;;;;4.90;1.40;;;;;;;24.98;34.49;101042.77;125910;1101;22744;-63
2021/06/04 10:34:52;;;;;;;7.15;1.50;;;;;;;25.01;34.66;101035.17;125616;1104;22747;-62
2021/06/04 10:37:27;;;;;;;5.48;1.33;;;;;;;25.06;35.22;101037.86;125750;1102;22740;-63
2021/06/04 10:40:05;;;;;;;5.25;1.20;;;;;;;25.14;35.43;101032.22;125677;1097;26577;-63
2021/06/04 10:42:48;;;;;;;5.10;1.40;;;;;;;25.21;34.94;101037.96;126002;1101;22756;-62
2021/06/04 10:45:21;;;;;;;3.30;1.10;;;;;;;25.26;34.87;101037.05;125642;1104;24399;-63
2021/06/04 10:48:06;;;;;;;9.10;1.58;;;;;;;25.29;34.73;101035.91;125920;1101;22737;-62
2021/06/04 10:50:41;;;;;;;5.65;1.30;;;;;;;25.33;34.46;101029.82;125896;1101;24567;-63
2021/06/04 10:53:21;;;;;;;7.03;1.35;;;;;;;25.39;34.73;101027.56;125585;1096;22765;-62
2021/06/04 10:56:00;;;;;;;7.75;1.75;;;;;;;25.51;34.47;101025.95;125717;1101;22745;-63
2021/06/04 10:58:44;;;;;;;8.10;1.45;;;;;;;25.57;34.45;101027.30;125814;1096;28278;-62
2021/06/04 11:01:21;;;;;;;7.53;1.40;;;;;;;25.65;34.28;101019.54;125572;1096;25851;-62
2021/06/04 11:04:00;;;;;;;4.58;1.20;;;;;;;25.71;34.19;101016.50;125612;1104;22729;-61
2021/06/04 11:06:41;;;;;;;7.13;1.53;;;;;;;25.77;34.08;101010.59;125752;1102;24377;-62
2021/06/04 11:09:21;;;;;;;5.07;1.60;;;;;;;25.83;33.85;101014.05;125944;1101;22737;-62
2021/06/04 11:12:04;;;;;;;7.23;1.60;;;;;;;25.87;34.09;101014.44;125568;1097;27381;-62
2021/06/04 11:14:53;;;;;;;6.63;1.50;;;;;;;25.87;33.67;101020.92;125765;1096;26689;-62
2021/06/04 11:17:28;;;;;;;;;;;;;;;25.80;33.20;101021.69;125748;1104;23611;-62
2021/06/04 11:20:11;;;;;;;5.83;1.20;;;;;;;25.78;33.45;101017.86;125736;1101;21461;-62
2021/06/04 11:22:56;;;;;;;7.23;1.20;;;;;;;25.83;33.69;101016.91;125783;1101;22764;-62
2021/06/04 11:25:38;;;;;;;8.73;1.38;;;;;;;25.87;33.41;101017.30;125620;1096;22744;-61
2021/06/04 11:28:18;;;;;;;7.65;1.40;;;;;;;25.87;33.64;101003.77;125818;1102;22754;-62
2021/06/04 11:30:53;;;;;;;7.55;1.40;;;;;;;25.90;33.44;101010.45;125723;1096;28411;-62
2021/06/04 11:33:28;;;;;;;5.18;1.25;;;;;;;25.96;33.27;101014.66;125977;1101;22903;-62
2021/06/04 11:36:10;;;;;;;5.80;1.15;;;;;;;26.00;33.15;101008.56;125777;1102;24572;-62
2021/06/04 11:38:45;;;;;;;5.10;1.23;;;;;;;26.04;33.16;101008.95;125706;1101;22812;-62
2021/06/04 11:41:22;;;;;;;6.08;1.33;;;;;;;26.10;33.30;101001.75;125774;1097;26073;-62
2021/06/04 11:43:57;;;;;;;4.85;1.30;;;;;;;26.17;33.05;101000.23;126101;1101;22812;-62
2021/06/04 11:46:30;;;;;;;6.07;1.67;;;;;;;26.20;32.81;100996.21;125981;1097;22747;-62
2021/06/04 11:49:13;;;;;;;7.08;1.15;;;;;;;26.19;32.59;100997.56;125669;1099;25893;-58
2021/06/04 11:51:49;;;;;;;4.65;1.25;;;;;;;26.20;33.03;100993.35;125872;1101;22771;-62